Saint-Sauveur-Des-Monts, Canada
Current Conditions -  °F | °C
As of 11:00 PM on Wednesday 22 Oct 2014 (Local Time) from CYMX Reporting Station
Few Clouds Few Clouds  
Wind Chill: 41°   Ceiling: Unl
Heat Index: 46°   Visibility: 25mi
Dew Point: 32°   Wind: 10mph
Humidity: 57%   Direction: 50°NE
Pressure: 30.23"   Gusts: 24mph
Location:  45.9°N, 74.17°W
Report Text: CYMX 230300Z 05009G21KT 010V080 25SM FEW065 FEW190 08/00 A3023 RMK SC1AC1 SC TR SLP240
Loading
Personal Weather Stations






























Interactive Weather Map
Tropical Storm Tracking
New forecast layout! Learn more

10-Day Weather Forecast

Advertisements
Track Severe Weather on mobile